createdAt,value
2022-10-13T00:00:46.935Z,8.01
2022-10-13T00:03:13.734Z,7.69
2022-10-13T00:05:42.366Z,7.11
2022-10-13T00:08:09.345Z,7.20
2022-10-13T00:10:42.102Z,7.70
2022-10-13T00:13:12.257Z,7.99
2022-10-13T00:15:40.345Z,7.98
2022-10-13T00:18:07.015Z,7.61
2022-10-13T00:20:34.459Z,7.30
2022-10-13T00:23:01.116Z,7.18
2022-10-13T00:25:28.282Z,7.52
2022-10-13T00:27:54.866Z,7.06
2022-10-13T00:30:27.000Z,7.79
2022-10-13T00:32:53.594Z,7.78
2022-10-13T00:35:20.165Z,7.43
2022-10-13T00:37:46.810Z,6.96
2022-10-13T00:40:13.409Z,6.79
2022-10-13T00:42:41.725Z,7.58
2022-10-13T00:45:17.623Z,7.75
2022-10-13T00:47:48.131Z,7.02
2022-10-13T00:50:26.182Z,7.89
2022-10-13T00:52:56.502Z,7.01
2022-10-13T00:55:28.152Z,8.00
2022-10-13T00:57:55.937Z,8.05
2022-10-13T01:00:30.253Z,8.10
2022-10-13T01:02:57.196Z,8.13
2022-10-13T01:05:24.630Z,7.47
2022-10-13T01:07:56.795Z,8.22
2022-10-13T01:10:43.113Z,8.29
2022-10-13T01:13:13.754Z,8.35
2022-10-13T01:15:58.314Z,8.42
2022-10-13T01:18:52.849Z,8.46
2022-10-13T01:21:38.881Z,8.51
2022-10-13T01:24:37.831Z,8.03
2022-10-13T01:27:22.697Z,8.57
2022-10-13T01:29:58.230Z,8.60
2022-10-13T01:32:33.699Z,8.63
2022-10-13T01:35:06.947Z,8.51
2022-10-13T01:37:56.529Z,8.65
2022-10-13T01:40:29.051Z,8.67
2022-10-13T01:43:12.783Z,8.69
2022-10-13T01:45:48.811Z,8.75
2022-10-13T01:48:17.826Z,8.77
2022-10-13T01:50:53.078Z,8.28
2022-10-13T01:53:21.189Z,8.90
2022-10-13T01:55:56.163Z,8.66
2022-10-13T01:58:25.065Z,8.93
2022-10-13T02:01:17.046Z,8.42
2022-10-13T02:04:08.881Z,8.52
2022-10-13T02:06:50.978Z,8.76
2022-10-13T02:09:47.856Z,9.13
2022-10-13T02:12:27.760Z,9.14
2022-10-13T02:14:57.241Z,8.85
2022-10-13T02:17:26.282Z,9.07
2022-10-13T02:19:54.219Z,8.90
2022-10-13T02:22:24.258Z,9.10
2022-10-13T02:24:52.608Z,8.89
2022-10-13T02:27:19.956Z,9.22
2022-10-13T02:29:52.293Z,9.22
2022-10-13T02:32:19.383Z,9.05
2022-10-13T02:34:46.474Z,8.06
2022-10-13T02:37:13.054Z,9.26
2022-10-13T02:39:39.873Z,9.23
2022-10-13T02:42:10.947Z,9.26
2022-10-13T02:44:37.476Z,8.84
2022-10-13T02:47:04.114Z,9.19
2022-10-13T02:49:30.676Z,9.29
2022-10-13T02:51:57.358Z,9.31
2022-10-13T02:54:23.958Z,9.22
2022-10-13T02:56:53.402Z,9.15
2022-10-13T02:59:20.021Z,9.34
2022-10-13T03:01:46.665Z,9.31
2022-10-13T03:04:13.280Z,8.60
2022-10-13T03:06:39.842Z,9.29
2022-10-13T03:09:07.509Z,8.62
2022-10-13T03:11:35.392Z,8.91
2022-10-13T03:14:02.373Z,9.28
2022-10-13T03:16:29.063Z,8.51
2022-10-13T03:18:55.690Z,9.22
2022-10-13T03:21:22.371Z,9.30
2022-10-13T03:23:48.983Z,9.31
2022-10-13T03:26:16.242Z,9.29
2022-10-13T03:28:43.146Z,9.31
2022-10-13T03:31:12.658Z,9.31
2022-10-13T03:33:40.695Z,9.34
2022-10-13T03:36:07.648Z,9.36
2022-10-13T03:38:35.599Z,9.37
2022-10-13T03:41:13.842Z,9.06
2022-10-13T03:43:41.961Z,9.40
2022-10-13T03:46:11.161Z,9.42
2022-10-13T03:48:38.136Z,9.46
2022-10-13T03:51:14.412Z,9.47
2022-10-13T03:53:45.608Z,9.51
2022-10-13T03:56:20.968Z,9.55
2022-10-13T03:58:55.931Z,9.30
2022-10-13T04:01:25.070Z,9.57
2022-10-13T04:03:55.666Z,9.54
2022-10-13T04:06:23.636Z,9.64
2022-10-13T04:08:51.584Z,9.15
2022-10-13T04:11:19.022Z,9.71
2022-10-13T04:13:50.488Z,9.31
2022-10-13T04:16:26.031Z,9.76
2022-10-13T04:19:02.478Z,9.67
2022-10-13T04:21:30.863Z,9.75
2022-10-13T04:23:59.253Z,9.25
2022-10-13T04:26:29.346Z,9.79
2022-10-13T04:28:57.389Z,9.83
2022-10-13T04:31:24.687Z,9.67
2022-10-13T04:33:51.678Z,9.13
2022-10-13T04:36:18.860Z,9.89
2022-10-13T04:38:48.919Z,9.89
2022-10-13T04:41:17.061Z,9.91
2022-10-13T04:43:44.368Z,9.93
2022-10-13T04:46:14.920Z,9.38
2022-10-13T04:48:42.142Z,9.96
2022-10-13T04:51:11.746Z,9.90
2022-10-13T04:53:38.797Z,9.98
2022-10-13T04:56:11.551Z,10.00
2022-10-13T04:58:39.047Z,10.03
2022-10-13T05:01:08.753Z,10.05
2022-10-13T05:03:35.394Z,9.98
2022-10-13T05:06:01.960Z,10.10
2022-10-13T05:08:28.725Z,9.87
2022-10-13T05:10:59.125Z,10.14
2022-10-13T05:13:27.474Z,10.09
2022-10-13T05:15:57.251Z,10.18
2022-10-13T05:18:24.342Z,9.68
2022-10-13T05:20:50.951Z,9.78
2022-10-13T05:23:17.916Z,10.23
2022-10-13T05:25:44.690Z,10.21
2022-10-13T05:28:13.781Z,10.26
2022-10-13T05:30:40.570Z,10.04
2022-10-13T05:33:07.106Z,10.21
2022-10-13T05:35:33.669Z,9.60
2022-10-13T05:38:00.262Z,10.02
2022-10-13T05:40:28.410Z,9.96
2022-10-13T05:43:00.434Z,10.38
2022-10-13T05:45:29.555Z,9.94
2022-10-13T05:47:56.123Z,10.38
2022-10-13T05:50:22.851Z,9.73
2022-10-13T05:52:50.338Z,9.90
2022-10-13T05:55:19.026Z,10.51
2022-10-13T05:57:51.707Z,9.96
2022-10-13T06:00:20.168Z,10.76
2022-10-13T06:02:55.035Z,10.34
2022-10-13T06:05:24.465Z,10.58
2022-10-13T06:07:54.216Z,9.90
2022-10-13T06:10:21.094Z,10.93
2022-10-13T06:12:47.712Z,10.23
2022-10-13T06:15:14.343Z,10.85
2022-10-13T06:17:40.954Z,10.39
2022-10-13T06:20:08.570Z,11.09
2022-10-13T06:22:37.804Z,10.72
2022-10-13T06:25:06.478Z,11.18
2022-10-13T06:27:33.531Z,11.25
2022-10-13T06:30:00.115Z,11.29
2022-10-13T06:32:26.738Z,10.59
2022-10-13T06:34:53.277Z,11.26
2022-10-13T06:37:23.444Z,11.39
2022-10-13T06:39:52.848Z,11.18
2022-10-13T06:42:19.726Z,10.78
2022-10-13T06:44:50.784Z,11.48
2022-10-13T06:47:17.853Z,11.17
2022-10-13T06:49:44.592Z,11.31
2022-10-13T06:52:12.663Z,11.63
2022-10-13T06:54:40.345Z,11.56
2022-10-13T06:57:07.004Z,11.71
2022-10-13T06:59:33.898Z,11.75
2022-10-13T07:02:00.745Z,11.11
2022-10-13T07:04:28.220Z,11.09
2022-10-13T07:06:57.742Z,11.78
2022-10-13T07:09:24.375Z,11.94
2022-10-13T07:11:51.039Z,11.59
2022-10-13T07:14:17.943Z,12.10
2022-10-13T07:16:44.805Z,12.06
2022-10-13T07:19:11.471Z,11.39
2022-10-13T07:21:41.081Z,12.26
2022-10-13T07:24:07.946Z,11.66
2022-10-13T07:26:34.677Z,11.84
2022-10-13T07:29:02.767Z,12.44
2022-10-13T07:31:29.405Z,12.49
2022-10-13T07:33:59.032Z,12.18
2022-10-13T07:36:28.022Z,12.59
2022-10-13T07:38:54.606Z,12.17
2022-10-13T07:41:21.238Z,12.63
2022-10-13T07:43:47.870Z,12.70
2022-10-13T07:46:14.493Z,12.72
2022-10-13T07:48:41.717Z,11.42
2022-10-13T07:51:11.294Z,12.79
2022-10-13T07:53:38.423Z,12.81
2022-10-13T07:56:07.509Z,12.58
2022-10-13T07:58:37.384Z,12.84
2022-10-13T08:01:04.433Z,12.87
2022-10-13T08:03:32.674Z,12.06
2022-10-13T08:06:04.813Z,12.96
2022-10-13T08:08:32.633Z,12.20
2022-10-13T08:11:07.810Z,12.48
2022-10-13T08:13:34.837Z,13.16
2022-10-13T08:16:12.941Z,12.94
2022-10-13T08:18:39.520Z,13.31
2022-10-13T08:21:45.825Z,13.26
2022-10-13T08:23:59.442Z,13.39
2022-10-13T08:26:29.151Z,13.45
2022-10-13T08:31:43.646Z,13.45
2022-10-13T08:34:10.921Z,13.74
2022-10-13T08:36:38.763Z,13.72
2022-10-13T08:39:05.891Z,13.40
2022-10-13T08:41:40.551Z,13.93
2022-10-13T08:47:21.295Z,13.81
2022-10-13T08:49:48.205Z,13.25
2022-10-13T08:52:21.579Z,13.74
2022-10-13T08:54:49.361Z,14.23
2022-10-13T08:57:17.609Z,14.32
2022-10-13T08:59:44.690Z,14.38
2022-10-13T09:02:31.405Z,14.46
2022-10-13T09:05:03.571Z,14.16
2022-10-13T09:07:36.866Z,14.31
2022-10-13T09:10:04.212Z,14.36
2022-10-13T09:12:31.492Z,14.68
2022-10-13T09:15:00.011Z,14.86
2022-10-13T09:17:27.922Z,15.00
2022-10-13T09:20:05.596Z,15.10
2022-10-13T09:22:37.856Z,15.23
2022-10-13T09:25:11.855Z,14.18
2022-10-13T09:28:00.346Z,15.56
2022-10-13T09:30:43.293Z,15.65
2022-10-13T09:33:11.825Z,15.72
2022-10-13T09:35:47.395Z,14.79
2022-10-13T09:38:22.924Z,15.26
2022-10-13T09:41:00.240Z,15.66
2022-10-13T09:43:47.301Z,15.61
2022-10-13T09:46:29.608Z,15.53
2022-10-13T09:49:02.108Z,15.49
2022-10-13T09:51:41.568Z,15.36
2022-10-13T09:54:35.551Z,15.41
2022-10-13T09:57:24.665Z,15.41
2022-10-13T10:00:17.032Z,15.33
2022-10-13T10:02:53.765Z,15.42
2022-10-13T10:05:44.822Z,15.43
2022-10-13T10:08:13.924Z,14.76
2022-10-13T10:10:42.519Z,15.43
2022-10-13T10:13:13.673Z,15.19
2022-10-13T10:15:53.016Z,15.56
2022-10-13T10:18:56.339Z,15.60
2022-10-13T10:21:31.150Z,15.64
2022-10-13T10:24:24.660Z,15.63
2022-10-13T10:27:23.587Z,15.56
2022-10-13T10:29:54.095Z,15.40
2022-10-13T10:32:27.461Z,15.41
2022-10-13T10:35:02.396Z,15.27
2022-10-13T10:37:44.613Z,15.23
2022-10-13T10:40:23.021Z,15.13
2022-10-13T10:43:47.047Z,15.00
2022-10-13T10:46:22.893Z,14.86
2022-10-13T10:48:53.922Z,14.77
2022-10-13T10:51:22.812Z,14.71
2022-10-13T10:54:16.293Z,14.72
2022-10-13T10:56:49.488Z,14.71
2022-10-13T10:59:37.033Z,14.67
2022-10-13T11:02:06.625Z,14.70
2022-10-13T11:04:45.370Z,14.70
2022-10-13T11:07:43.673Z,14.70
2022-10-13T11:10:13.125Z,14.73
2022-10-13T11:12:51.915Z,14.76
2022-10-13T11:15:25.909Z,14.76
2022-10-13T11:17:52.545Z,14.46
2022-10-13T11:20:22.041Z,14.80
2022-10-13T11:22:57.728Z,14.83
2022-10-13T11:25:41.002Z,14.87
2022-10-13T11:28:22.919Z,14.90
2022-10-13T11:31:05.302Z,14.98
2022-10-13T11:33:41.171Z,15.06
2022-10-13T11:36:48.331Z,15.17
2022-10-13T11:39:27.984Z,15.32
2022-10-13T11:42:25.657Z,15.44
2022-10-13T11:44:56.899Z,15.59
2022-10-13T11:47:42.349Z,15.69
2022-10-13T11:50:37.113Z,15.20
2022-10-13T11:53:41.656Z,15.93
2022-10-13T11:56:31.859Z,16.04
2022-10-13T11:58:58.504Z,15.54
2022-10-13T12:01:25.013Z,15.91
2022-10-13T12:03:51.589Z,16.11
2022-10-13T12:06:35.521Z,15.64
2022-10-13T12:09:05.075Z,15.98
2022-10-13T12:11:38.397Z,15.85
2022-10-13T12:14:08.781Z,15.76
2022-10-13T12:16:35.380Z,15.71
2022-10-13T12:19:29.746Z,15.73
2022-10-13T12:22:01.472Z,15.75
2022-10-13T12:24:30.689Z,15.76
2022-10-13T12:26:58.699Z,15.77
2022-10-13T12:29:33.472Z,15.44
2022-10-13T12:32:03.029Z,15.74
2022-10-13T12:34:33.646Z,15.83
2022-10-13T12:37:04.974Z,15.89
2022-10-13T12:39:33.933Z,15.87
2022-10-13T12:42:03.200Z,15.70
2022-10-13T12:44:32.145Z,15.61
2022-10-13T12:47:02.700Z,15.59
2022-10-13T12:49:30.403Z,15.55
2022-10-13T12:52:15.455Z,15.52
2022-10-13T12:54:51.529Z,15.53
2022-10-13T12:57:25.882Z,15.54
2022-10-13T12:59:52.850Z,14.69
2022-10-13T13:02:24.686Z,15.07
2022-10-13T13:04:51.510Z,15.33
2022-10-13T13:07:33.854Z,15.47
2022-10-13T13:10:13.237Z,15.16
2022-10-13T13:12:40.292Z,15.43
2022-10-13T13:15:24.657Z,15.37
2022-10-13T13:17:58.441Z,14.20
2022-10-13T13:20:31.761Z,14.84
2022-10-13T13:22:59.023Z,14.94
2022-10-13T13:25:26.293Z,14.84
2022-10-13T13:27:53.157Z,14.62
2022-10-13T13:30:22.611Z,15.37
2022-10-13T13:32:49.974Z,10.41
2022-10-13T13:35:16.905Z,15.42
2022-10-13T13:37:50.526Z,15.36
2022-10-13T13:40:19.840Z,15.47
2022-10-13T13:42:46.596Z,14.39
2022-10-13T13:45:17.854Z,15.44
2022-10-13T13:47:44.744Z,15.57
2022-10-13T13:50:23.000Z,15.55
2022-10-13T13:52:59.105Z,15.49
2022-10-13T13:55:26.804Z,15.57
2022-10-13T13:57:53.543Z,15.48
2022-10-13T14:00:20.632Z,15.22
2022-10-13T14:02:53.063Z,15.50
2022-10-13T14:05:19.613Z,15.36
2022-10-13T14:07:46.248Z,14.89
2022-10-13T14:10:12.872Z,15.60
2022-10-13T14:12:39.472Z,15.46
2022-10-13T14:15:06.563Z,15.64
2022-10-13T14:17:33.201Z,15.29
2022-10-13T14:20:00.450Z,15.65
2022-10-13T14:22:27.950Z,14.96
2022-10-13T14:24:54.514Z,15.23
2022-10-13T14:27:21.121Z,15.64
2022-10-13T14:29:48.615Z,14.94
2022-10-13T14:32:15.614Z,15.60
2022-10-13T14:34:42.187Z,15.60
2022-10-13T14:37:08.857Z,15.61
2022-10-13T14:39:35.381Z,15.60
2022-10-13T14:42:02.577Z,15.70
2022-10-13T14:44:29.173Z,15.72
2022-10-13T14:46:55.989Z,15.60
2022-10-13T14:49:22.617Z,15.77
2022-10-13T14:51:50.324Z,15.13
2022-10-13T14:54:17.791Z,15.35
2022-10-13T14:56:44.849Z,15.59
2022-10-13T14:59:11.952Z,13.51
2022-10-13T15:01:41.423Z,15.70
2022-10-13T15:04:08.402Z,15.71
2022-10-13T15:06:39.740Z,15.71
2022-10-13T15:11:36.446Z,15.65
2022-10-13T15:14:03.149Z,14.95
2022-10-13T15:16:33.243Z,15.46
2022-10-13T15:19:00.258Z,15.47
2022-10-13T15:21:27.692Z,14.65
2022-10-13T15:23:54.341Z,15.11
2022-10-13T15:26:21.591Z,14.75
2022-10-13T15:28:51.118Z,15.21
2022-10-13T15:31:19.446Z,14.96
2022-10-13T15:33:47.847Z,15.13
2022-10-13T15:36:15.108Z,14.11
2022-10-13T15:38:41.767Z,14.51
2022-10-13T15:41:10.310Z,14.74
2022-10-13T15:43:37.873Z,14.57
2022-10-13T15:46:12.920Z,14.98
2022-10-13T15:48:39.935Z,14.20
2022-10-13T15:51:14.627Z,14.87
2022-10-13T15:53:41.256Z,14.01
2022-10-13T15:56:08.840Z,14.45
2022-10-13T15:58:36.317Z,14.74
2022-10-13T16:01:10.726Z,14.72
2022-10-13T16:03:38.134Z,14.68
2022-10-13T16:06:06.914Z,14.64
2022-10-13T16:08:40.232Z,14.58
2022-10-13T16:11:11.313Z,14.43
2022-10-13T16:13:38.304Z,14.43
2022-10-13T16:16:04.973Z,14.15
2022-10-13T16:18:34.072Z,13.56
2022-10-13T16:21:00.728Z,13.61
2022-10-13T16:23:27.676Z,14.17
2022-10-13T16:25:54.286Z,13.31
2022-10-13T16:28:21.901Z,14.04
2022-10-13T16:30:48.517Z,12.95
2022-10-13T16:33:15.128Z,13.59
2022-10-13T16:35:41.672Z,13.87
2022-10-13T16:38:08.978Z,13.80
2022-10-13T16:40:37.982Z,13.77
2022-10-13T16:43:05.448Z,13.47
2022-10-13T16:45:54.988Z,13.68
2022-10-13T16:48:21.754Z,12.72
2022-10-13T16:50:48.756Z,13.28
2022-10-13T16:53:19.424Z,12.97
2022-10-13T16:55:46.105Z,12.77
2022-10-13T16:58:14.508Z,13.39
2022-10-13T17:00:41.695Z,13.34
2022-10-13T17:03:11.622Z,13.26
2022-10-13T17:05:38.233Z,13.09
2022-10-13T17:08:04.991Z,13.13
2022-10-13T17:10:31.595Z,12.12
2022-10-13T17:13:01.334Z,11.93
2022-10-13T17:15:31.764Z,12.60
2022-10-13T17:17:58.354Z,12.08
2022-10-13T17:20:25.000Z,12.58
2022-10-13T17:22:51.653Z,11.62
2022-10-13T17:25:19.329Z,12.74
2022-10-13T17:27:48.267Z,12.61
2022-10-13T17:30:15.325Z,12.28
2022-10-13T17:32:42.692Z,12.02
2022-10-13T17:35:14.294Z,11.80
2022-10-13T17:37:40.887Z,12.44
2022-10-13T17:40:08.007Z,12.21
2022-10-13T17:42:34.795Z,11.62
2022-10-13T17:45:01.368Z,12.24
2022-10-13T17:47:31.412Z,12.32
2022-10-13T17:49:58.008Z,12.28
2022-10-13T17:52:26.683Z,12.23
2022-10-13T17:54:53.255Z,11.96
2022-10-13T17:57:20.105Z,12.11
2022-10-13T17:59:46.873Z,11.99
2022-10-13T18:02:13.644Z,12.13
2022-10-13T18:04:40.408Z,12.09
2022-10-13T18:07:07.560Z,12.06
2022-10-13T18:09:34.261Z,11.91
2022-10-13T18:12:00.828Z,12.00
2022-10-13T18:14:28.259Z,11.27
2022-10-13T18:16:55.413Z,11.14
2022-10-13T18:19:22.446Z,11.38
2022-10-13T18:21:49.755Z,11.93
2022-10-13T18:24:16.554Z,11.93
2022-10-13T18:26:43.199Z,11.80
2022-10-13T18:29:12.112Z,11.84
2022-10-13T18:31:40.266Z,11.80
2022-10-13T18:34:11.996Z,11.40
2022-10-13T18:36:42.054Z,11.73
2022-10-13T18:39:20.123Z,10.88
2022-10-13T18:41:48.890Z,10.92
2022-10-13T18:44:16.006Z,11.62
2022-10-13T18:46:42.605Z,11.40
2022-10-13T18:49:12.488Z,11.58
2022-10-13T18:51:42.079Z,11.00
2022-10-13T18:54:08.815Z,11.58
2022-10-13T18:56:38.270Z,11.11
2022-10-13T18:59:06.588Z,11.30
2022-10-13T19:01:34.862Z,11.59
2022-10-13T19:04:02.344Z,11.49
2022-10-13T19:06:31.961Z,11.56
2022-10-13T19:09:01.615Z,11.55
2022-10-13T19:11:29.693Z,11.56
2022-10-13T19:13:57.294Z,10.66
2022-10-13T19:16:25.781Z,11.54
2022-10-13T19:18:52.662Z,11.54
2022-10-13T19:21:20.487Z,11.53
2022-10-13T19:23:47.111Z,11.54
2022-10-13T19:26:24.228Z,11.53
2022-10-13T19:29:02.641Z,11.52
2022-10-13T19:31:31.043Z,11.50
2022-10-13T19:33:59.549Z,11.41
2022-10-13T19:36:38.995Z,11.02
2022-10-13T19:39:11.682Z,11.45
2022-10-13T19:41:38.580Z,10.52
2022-10-13T19:44:05.233Z,11.41
2022-10-13T19:46:38.520Z,11.09
2022-10-13T19:49:05.408Z,11.06
2022-10-13T19:51:33.494Z,11.03
2022-10-13T19:54:00.651Z,11.41
2022-10-13T19:56:31.474Z,11.40
2022-10-13T19:58:58.542Z,11.38
2022-10-13T20:01:25.167Z,11.36
2022-10-13T20:03:52.492Z,11.34
2022-10-13T20:06:20.439Z,10.44
2022-10-13T20:08:47.843Z,11.27
2022-10-13T20:11:23.873Z,11.25
2022-10-13T20:13:52.327Z,11.24
2022-10-13T20:16:21.810Z,10.72
2022-10-13T20:18:53.654Z,11.24
2022-10-13T20:21:21.229Z,10.56
2022-10-13T20:23:48.736Z,10.63
2022-10-13T20:26:16.122Z,10.49
2022-10-13T20:28:45.017Z,10.55
2022-10-13T20:31:14.162Z,11.03
2022-10-13T20:33:41.009Z,10.85
2022-10-13T20:36:11.200Z,11.30
2022-10-13T20:38:38.001Z,11.36
2022-10-13T20:41:06.184Z,11.34
2022-10-13T20:43:33.044Z,11.31
2022-10-13T20:46:05.326Z,11.31
2022-10-13T20:48:51.441Z,11.31
2022-10-13T20:51:22.891Z,11.21
2022-10-13T20:53:50.159Z,10.58
2022-10-13T20:56:25.638Z,11.02
2022-10-13T20:58:53.161Z,11.25
2022-10-13T21:01:22.200Z,11.02
2022-10-13T21:03:55.961Z,11.36
2022-10-13T21:06:24.281Z,11.37
2022-10-13T21:08:51.415Z,11.37
2022-10-13T21:11:20.385Z,11.33
2022-10-13T21:13:47.956Z,11.30
2022-10-13T21:16:17.134Z,11.12
2022-10-13T21:18:48.053Z,11.26
2022-10-13T21:21:19.927Z,11.27
2022-10-13T21:23:55.099Z,11.28
2022-10-13T21:26:22.424Z,11.29
2022-10-13T21:28:50.222Z,10.66
2022-10-13T21:31:18.772Z,11.29
2022-10-13T21:33:45.380Z,10.44
2022-10-13T21:36:18.524Z,11.25
2022-10-13T21:38:46.371Z,10.64
2022-10-13T21:41:14.335Z,11.21
2022-10-13T21:43:41.276Z,11.18
2022-10-13T21:46:18.754Z,11.15
2022-10-13T21:48:46.627Z,10.07
2022-10-13T21:51:14.433Z,11.09
2022-10-13T21:53:41.650Z,11.06
2022-10-13T21:56:09.898Z,11.02
2022-10-13T21:58:38.195Z,10.97
2022-10-13T22:01:06.083Z,10.93
2022-10-13T22:03:33.446Z,10.93
2022-10-13T22:06:07.428Z,10.56
2022-10-13T22:08:38.574Z,9.78
2022-10-13T22:11:13.541Z,10.53
2022-10-13T22:13:40.439Z,10.79
2022-10-13T22:16:14.376Z,10.79
2022-10-13T22:18:41.397Z,10.70
2022-10-13T22:21:11.149Z,10.80
2022-10-13T22:23:37.727Z,10.78
2022-10-13T22:26:04.349Z,10.11
2022-10-13T22:28:36.067Z,10.78
2022-10-13T22:31:09.579Z,10.76
2022-10-13T22:33:37.536Z,10.67
2022-10-13T22:36:08.911Z,10.44
2022-10-13T22:38:35.798Z,10.49
2022-10-13T22:41:05.042Z,10.38
2022-10-13T22:43:32.174Z,10.48
2022-10-13T22:46:15.533Z,10.09
2022-10-13T22:48:42.262Z,9.87
2022-10-13T22:51:10.319Z,10.76
2022-10-13T22:53:37.475Z,10.75
2022-10-13T22:56:16.809Z,10.74
2022-10-13T22:58:43.563Z,10.71
2022-10-13T23:01:13.774Z,10.62
2022-10-13T23:03:40.782Z,10.69
2022-10-13T23:06:12.318Z,10.40
2022-10-13T23:08:39.014Z,9.82
2022-10-13T23:11:05.600Z,10.43
2022-10-13T23:13:32.257Z,10.67
2022-10-13T23:16:06.178Z,10.67
2022-10-13T23:18:37.812Z,9.74
2022-10-13T23:21:08.875Z,10.67
2022-10-13T23:23:35.513Z,10.10
2022-10-13T23:26:07.705Z,10.13
2022-10-13T23:28:35.182Z,10.07
2022-10-13T23:31:04.059Z,10.66
2022-10-13T23:33:31.302Z,9.96
2022-10-13T23:35:59.508Z,9.87
2022-10-13T23:38:27.487Z,10.68
2022-10-13T23:40:54.050Z,10.70
2022-10-13T23:43:21.568Z,10.44
2022-10-13T23:45:48.129Z,10.74
2022-10-13T23:48:15.199Z,10.78
2022-10-13T23:50:41.742Z,10.25
2022-10-13T23:53:08.274Z,10.80
2022-10-13T23:55:38.830Z,10.81
2022-10-13T23:58:05.920Z,10.84
